LIRN Airport Information

Runway Information
Runway 06 Length 8622 ft width 148 ft Elevation 284 ft Threshold 1309 ft Heading 58
Runway 24 Length 8622 ft Width 148 ft Elevation 223 ft Threshold 624 ft Heading 238
Airport Frequencies
Type APP Name NAPOLI RAD Frequency 124.35 MHZ
Type ATIS Name ATIS Frequency 135.975 MHZ
Type DIR Name NAPOLI DIR Frequency 120.95 MHZ
Type GCCD Name NAPOLI GND Frequency 121.9 MHZ
Type OPS Name USN BASE O Frequency 118.275 MHZ
Type PMSV Name PMSV METRO Frequency 34.1 MHZ
Type POST Name ATOC Frequency 118.275 MHZ
Type TWR Name NAPOLI TWR Frequency 118.5 MHZ
Airport Navaids
Type VOR-DME Name Pomigliano Frequency 117850 KHZ
Type NDB Name Pomigliano Frequency 351 KHZ
Airport Weather Information & NOTAM
ADDS - METARS form results

(2229 UTC 04 December 2022)
Data provider http://aviationweather.gov/metar/data/
 
METAR text: LIRN 042220Z VRB02KT CAVOK 11/09 Q1020 NOSIG
Conditions at: LIRN (NAPLES/CAPODICHI, IT) observed 2220 UTC 04 December 2022
Temperature: 11.0°C (52°F)
Dewpoint: 9.0°C (48°F) [RH = 87%]
Pressure (altimeter): 30.12 inches Hg (1020.0 mb)
Winds: variable direction winds at 2 MPH (2 knots; 1.0 m/s)
Visibility: 6 or more miles (10+ km)
Ceiling: ceiling and visibility are OK
Clouds: unknown
Weather: no significant weather observed at this time

METAR text: LIRN 042150Z 36003KT 310V040 CAVOK 11/09 Q1020 NOSIG
Conditions at: LIRN (NAPLES/CAPODICHI, IT) observed 2150 UTC 04 December 2022
Temperature: 11.0°C (52°F)
Dewpoint: 9.0°C (48°F) [RH = 87%]
Pressure (altimeter): 30.12 inches Hg (1020.0 mb)
Winds: from the N (360 degrees) at 3 MPH (3 knots; 1.5 m/s)
Visibility: 6 or more miles (10+ km)
Ceiling: ceiling and visibility are OK
Clouds: unknown
Weather: no significant weather observed at this time

Forecast for: LIRN (NAPLES/CAPODICHI, IT)
Text: TAF LIRN 041700Z 0418/0518 VRB05KT 9999 FEW030
Forecast period: 1800 UTC 04 December 2022 to 1800 UTC 05 December 2022
Forecast type: FROM: standard forecast or significant change
Winds: variable direction winds at 6 MPH (5 knots; 2.6 m/s)
Visibility: 6 or more miles (10+ km)
Ceiling: at least 12,000 feet AGL
Clouds: few clouds at 3000 feet AGL
Weather: no significant weather forecast for this period